Time;durP1;ratioP1;P1;durP2;ratioP2;P2;SDS_P1;SDS_P2;PMS_P1;PMS_P2;Temp;Humidity;BMP_temperature;BMP_pressure;BME280_temperature;BME280_humidity;BME280_pressure;Samples;Min_cycle;Max_cycle;Signal;HPM_P1;HPM_P2
2023/07/28 00:02:08;;;;;;;5.88;1.73;;;;;;;;;;5099609;28;20491;-82
2023/07/28 00:04:36;;;;;;;2.13;1.15;;;;;;;;;;5117800;28;20062;-82
2023/07/28 00:07:03;;;;;;;4.78;1.20;;;;;;;;;;5098815;28;20504;-82
2023/07/28 00:09:31;;;;;;;6.95;1.48;;;;;;;;;;5099294;28;20051;-80
2023/07/28 00:11:58;;;;;;;2.03;1.48;;;;;;;;;;5099227;28;20574;-82
2023/07/28 00:14:26;;;;;;;1.58;1.02;;;;;;;;;;5116106;28;20477;-81
2023/07/28 00:16:57;;;;;;;2.45;1.55;;;;;;;;;;5116361;28;20059;-82
2023/07/28 00:19:25;;;;;;;1.70;1.60;;;;;;;;;;5115684;28;20048;-82
2023/07/28 00:21:52;;;;;;;2.38;1.30;;;;;;;;;;5115677;28;20044;-82
2023/07/28 00:24:19;;;;;;;2.30;2.08;;;;;;;;;;5097137;28;20071;-82
2023/07/28 00:26:46;;;;;;;1.63;1.52;;;;;;;;;;5114931;28;20047;-80
2023/07/28 00:29:14;;;;;;;1.98;1.60;;;;;;;;;;5096734;28;20097;-81
2023/07/28 00:31:41;;;;;;;2.42;1.45;;;;;;;;;;5096529;28;20100;-82
2023/07/28 00:34:08;;;;;;;1.83;1.73;;;;;;;;;;5096056;28;20421;-82
2023/07/28 00:36:35;;;;;;;4.40;1.42;;;;;;;;;;5096292;28;20411;-80
2023/07/28 00:39:03;;;;;;;2.85;1.55;;;;;;;;;;5114022;28;20505;-80
2023/07/28 00:41:30;;;;;;;3.42;1.83;;;;;;;;;;5113529;28;20048;-82
2023/07/28 00:43:57;;;;;;;2.05;1.48;;;;;;;;;;5113954;28;20560;-81
2023/07/28 00:46:25;;;;;;;2.88;1.40;;;;;;;;;;5113861;28;20096;-80
2023/07/28 00:48:53;;;;;;;3.80;1.45;;;;;;;;;;5095313;28;20047;-81
2023/07/28 00:51:20;;;;;;;4.03;1.40;;;;;;;;;;5113624;28;20495;-81
2023/07/28 00:53:47;;;;;;;2.17;1.30;;;;;;;;;;5095533;28;20051;-81
2023/07/28 00:56:15;;;;;;;1.30;1.17;;;;;;;;;;5094923;28;20523;-81
2023/07/28 00:58:42;;;;;;;1.80;1.23;;;;;;;;;;5095173;28;20093;-81
2023/07/28 01:01:09;;;;;;;2.17;1.60;;;;;;;;;;5094855;28;20051;-81
2023/07/28 01:03:37;;;;;;;7.20;1.55;;;;;;;;;;5113267;28;20495;-81
2023/07/28 01:06:04;;;;;;;2.75;1.50;;;;;;;;;;5113298;28;20108;-81
2023/07/28 01:08:34;;;;;;;1.30;1.30;;;;;;;;;;5113046;28;20048;-80
2023/07/28 01:11:03;;;;;;;1.70;1.08;;;;;;;;;;5094879;28;20052;-80
2023/07/28 01:13:30;;;;;;;4.40;1.30;;;;;;;;;;5112913;28;20056;-81
2023/07/28 01:15:58;;;;;;;1.30;1.20;;;;;;;;;;5112811;28;20051;-81
2023/07/28 01:18:25;;;;;;;1.95;1.30;;;;;;;;;;5094816;28;20048;-82
2023/07/28 01:20:56;;;;;;;1.50;1.42;;;;;;;;;;5101241;28;20047;-82
2023/07/28 01:23:35;;;;;;;5.57;1.70;;;;;;;;;;5118136;28;20071;-81
2023/07/28 01:26:12;;;;;;;2.05;1.33;;;;;;;;;;5117878;28;20059;-82
2023/07/28 01:28:41;;;;;;;4.22;1.50;;;;;;;;;;5118220;28;20389;-82
2023/07/28 01:31:09;;;;;;;1.70;1.60;;;;;;;;;;5099504;28;20491;-82
2023/07/28 01:33:36;;;;;;;1.23;1.20;;;;;;;;;;5099181;28;20496;-82
2023/07/28 01:36:04;;;;;;;2.35;1.30;;;;;;;;;;5099284;28;20047;-83
2023/07/28 01:38:31;;;;;;;2.88;1.60;;;;;;;;;;5100257;28;20552;-82
2023/07/28 01:40:58;;;;;;;2.42;1.10;;;;;;;;;;5099576;28;20058;-82
2023/07/28 01:43:26;;;;;;;2.03;1.17;;;;;;;;;;5099728;28;20047;-82
2023/07/28 01:45:53;;;;;;;0.95;0.95;;;;;;;;;;5100096;28;20097;-83
2023/07/28 01:48:20;;;;;;;2.75;0.98;;;;;;;;;;5099431;28;20048;-82
2023/07/28 01:50:48;;;;;;;1.88;0.90;;;;;;;;;;5118013;28;20088;-81
2023/07/28 01:53:15;;;;;;;3.03;1.00;;;;;;;;;;5120403;28;20059;-79
2023/07/28 01:55:42;;;;;;;0.80;0.80;;;;;;;;;;5103713;28;20073;-82
2023/07/28 01:58:09;;;;;;;2.75;0.80;;;;;;;;;;5120929;28;20043;-82
2023/07/28 02:00:37;;;;;;;0.98;0.98;;;;;;;;;;5103079;28;20043;-79
2023/07/28 02:03:04;;;;;;;2.65;0.90;;;;;;;;;;5120837;28;20044;-81
2023/07/28 02:05:31;;;;;;;1.73;1.10;;;;;;;;;;5101591;28;20043;-82
2023/07/28 02:07:59;;;;;;;1.75;0.88;;;;;;;;;;5119968;28;20051;-82
2023/07/28 02:10:27;;;;;;;0.88;0.88;;;;;;;;;;5101260;28;20051;-80
2023/07/28 02:12:54;;;;;;;0.80;0.80;;;;;;;;;;5101374;28;20422;-81
2023/07/28 02:15:21;;;;;;;2.35;0.93;;;;;;;;;;5119092;28;20101;-80
2023/07/28 02:17:49;;;;;;;0.95;0.95;;;;;;;;;;5100489;28;20100;-81
2023/07/28 02:20:16;;;;;;;1.23;1.08;;;;;;;;;;5100668;28;20039;-81
2023/07/28 02:22:44;;;;;;;0.77;0.70;;;;;;;;;;5100675;28;20048;-79
2023/07/28 02:25:11;;;;;;;1.42;0.80;;;;;;;;;;5118284;28;20047;-81
2023/07/28 02:27:39;;;;;;;1.77;0.93;;;;;;;;;;5118527;28;20047;-79
2023/07/28 02:30:06;;;;;;;0.77;0.77;;;;;;;;;;5118314;28;20047;-81
2023/07/28 02:32:34;;;;;;;0.90;0.90;;;;;;;;;;5100127;28;20583;-80
2023/07/28 02:35:01;;;;;;;0.70;0.70;;;;;;;;;;5117824;28;20071;-80
2023/07/28 02:37:29;;;;;;;2.80;0.90;;;;;;;;;;5099707;28;20047;-80
2023/07/28 02:39:56;;;;;;;0.85;0.85;;;;;;;;;;5118031;28;20051;-81
2023/07/28 02:42:25;;;;;;;0.85;0.85;;;;;;;;;;5099456;28;20048;-81
2023/07/28 02:44:52;;;;;;;1.70;1.15;;;;;;;;;;5098792;28;20043;-79
2023/07/28 02:47:19;;;;;;;3.70;0.85;;;;;;;;;;5117163;28;20051;-81
2023/07/28 02:49:46;;;;;;;1.02;1.00;;;;;;;;;;5098852;28;20039;-81
2023/07/28 02:52:14;;;;;;;1.38;1.08;;;;;;;;;;5098772;28;20060;-81
2023/07/28 02:54:41;;;;;;;0.90;0.90;;;;;;;;;;5117869;28;20082;-81
2023/07/28 02:57:08;;;;;;;3.10;0.80;;;;;;;;;;5121542;28;20043;-81
2023/07/28 02:59:36;;;;;;;0.70;0.70;;;;;;;;;;5103446;28;20466;-80
2023/07/28 03:02:03;;;;;;;1.05;0.80;;;;;;;;;;5102465;28;20047;-80
2023/07/28 03:04:30;;;;;;;1.02;1.00;;;;;;;;;;5102727;28;20094;-82
2023/07/28 03:06:57;;;;;;;0.90;0.90;;;;;;;;;;5122312;28;20048;-81
2023/07/28 03:09:25;;;;;;;0.80;0.80;;;;;;;;;;5121238;28;20051;-81
2023/07/28 03:11:52;;;;;;;2.38;0.82;;;;;;;;;;5120183;28;20482;-82
2023/07/28 03:14:19;;;;;;;1.10;1.10;;;;;;;;;;5101297;28;20050;-81
2023/07/28 03:16:47;;;;;;;0.93;0.93;;;;;;;;;;5119356;28;20094;-82
2023/07/28 03:19:14;;;;;;;0.73;0.73;;;;;;;;;;5118854;28;20108;-81
2023/07/28 03:21:41;;;;;;;1.08;0.90;;;;;;;;;;5100791;28;20043;-81
2023/07/28 03:24:09;;;;;;;0.82;0.80;;;;;;;;;;5118067;28;20085;-81
2023/07/28 03:26:36;;;;;;;1.02;0.98;;;;;;;;;;5117968;28;20048;-80
2023/07/28 03:29:04;;;;;;;1.00;1.00;;;;;;;;;;5100016;28;20073;-81
2023/07/28 03:31:31;;;;;;;2.20;0.90;;;;;;;;;;5117763;28;20047;-80
2023/07/28 03:33:58;;;;;;;1.75;0.93;;;;;;;;;;5117384;28;20422;-81
2023/07/28 03:36:25;;;;;;;2.15;1.00;;;;;;;;;;5098007;28;20104;-81
2023/07/28 03:38:53;;;;;;;0.90;0.90;;;;;;;;;;5116576;28;20140;-81
2023/07/28 03:41:20;;;;;;;0.90;0.90;;;;;;;;;;5098226;28;20040;-82
2023/07/28 03:43:48;;;;;;;0.88;0.88;;;;;;;;;;5116860;28;20055;-82
2023/07/28 03:46:15;;;;;;;0.73;0.73;;;;;;;;;;5098238;28;20104;-81
2023/07/28 03:48:42;;;;;;;0.77;0.77;;;;;;;;;;5098491;28;20126;-82
2023/07/28 03:51:10;;;;;;;1.83;0.93;;;;;;;;;;5098290;28;20052;-83
2023/07/28 03:53:37;;;;;;;1.30;1.30;;;;;;;;;;5097857;28;20068;-82
2023/07/28 03:56:04;;;;;;;1.65;1.63;;;;;;;;;;5116019;28;20427;-83
2023/07/28 03:58:31;;;;;;;2.40;2.20;;;;;;;;;;5114773;28;20108;-81
2023/07/28 04:00:59;;;;;;;2.60;2.40;;;;;;;;;;5096498;28;20458;-82
2023/07/28 04:03:26;;;;;;;2.30;2.13;;;;;;;;;;5096686;28;20109;-81
2023/07/28 04:05:53;;;;;;;3.70;3.33;;;;;;;;;;5114368;28;20092;-82
2023/07/28 04:08:20;;;;;;;4.57;4.22;;;;;;;;;;5100932;28;20047;-83
2023/07/28 04:10:47;;;;;;;2.80;2.60;;;;;;;;;;5103366;28;20051;-85
2023/07/28 04:13:15;;;;;;;2.45;1.80;;;;;;;;;;5101772;28;20052;-83
2023/07/28 04:15:42;;;;;;;4.10;2.58;;;;;;;;;;5102242;28;20047;-83
2023/07/28 04:18:09;;;;;;;2.35;1.98;;;;;;;;;;5101179;28;20492;-83
2023/07/28 04:20:36;;;;;;;3.10;1.67;;;;;;;;;;5100993;28;20128;-83
2023/07/28 04:23:04;;;;;;;2.67;1.55;;;;;;;;;;5101407;28;20069;-83
2023/07/28 04:25:31;;;;;;;1.73;1.63;;;;;;;;;;5100745;28;20509;-81
2023/07/28 04:27:58;;;;;;;1.58;1.48;;;;;;;;;;5118330;28;20251;-83
2023/07/28 04:30:25;;;;;;;2.45;1.67;;;;;;;;;;5100530;28;20048;-83
2023/07/28 04:32:53;;;;;;;1.77;1.67;;;;;;;;;;5119879;28;20454;-83
2023/07/28 04:35:20;;;;;;;1.63;1.58;;;;;;;;;;5101568;28;20048;-83
2023/07/28 04:37:47;;;;;;;2.42;2.13;;;;;;;;;;5101943;28;20050;-82
2023/07/28 04:40:15;;;;;;;3.65;1.83;;;;;;;;;;5118506;28;20054;-82
2023/07/28 04:42:43;;;;;;;2.08;1.90;;;;;;;;;;5100769;28;20048;-82
2023/07/28 04:45:10;;;;;;;2.05;1.77;;;;;;;;;;5099848;28;20066;-83
2023/07/28 04:47:38;;;;;;;2.38;1.98;;;;;;;;;;5100471;28;20072;-83
2023/07/28 04:50:05;;;;;;;2.50;2.30;;;;;;;;;;5098761;28;20071;-83
2023/07/28 04:52:32;;;;;;;3.92;2.38;;;;;;;;;;5098580;28;20487;-82
2023/07/28 04:54:59;;;;;;;4.60;2.70;;;;;;;;;;5116635;28;20809;-82
2023/07/28 04:57:27;;;;;;;7.50;2.50;;;;;;;;;;5116537;28;20053;-82
2023/07/28 04:59:54;;;;;;;1.98;1.88;;;;;;;;;;5115850;28;20484;-82
2023/07/28 05:02:21;;;;;;;1.30;1.20;;;;;;;;;;5098157;28;20043;-81
2023/07/28 05:04:48;;;;;;;1.63;1.50;;;;;;;;;;5097591;28;20043;-83
2023/07/28 05:07:15;;;;;;;1.52;1.40;;;;;;;;;;5115007;28;20055;-82
2023/07/28 05:09:44;;;;;;;2.67;1.50;;;;;;;;;;5096727;28;20113;-82
2023/07/28 05:12:12;;;;;;;1.73;1.63;;;;;;;;;;5114866;28;20051;-81
2023/07/28 05:14:39;;;;;;;1.27;1.17;;;;;;;;;;5096986;28;20493;-83
2023/07/28 05:17:06;;;;;;;2.20;1.40;;;;;;;;;;5114380;28;20499;-82
2023/07/28 05:19:34;;;;;;;1.58;1.48;;;;;;;;;;5115006;28;20043;-82
2023/07/28 05:22:01;;;;;;;3.78;1.25;;;;;;;;;;5114167;28;20043;-81
2023/07/28 05:24:28;;;;;;;4.50;1.67;;;;;;;;;;5095768;28;20044;-81
2023/07/28 05:26:55;;;;;;;2.55;1.10;;;;;;;;;;5113776;28;20040;-81
2023/07/28 05:29:23;;;;;;;1.85;0.28;;;;;;;;;;5114350;28;20405;-82
2023/07/28 05:31:50;;;;;;;0.85;0.25;;;;;;;;;;5114384;28;20055;-81
2023/07/28 05:34:17;;;;;;;2.38;0.20;;;;;;;;;;5096680;28;20056;-81
2023/07/28 05:36:45;;;;;;;0.20;0.20;;;;;;;;;;5115959;28;20052;-80
2023/07/28 05:39:12;;;;;;;1.30;0.20;;;;;;;;;;5114031;28;20047;-81
2023/07/28 05:41:39;;;;;;;1.95;0.10;;;;;;;;;;5113905;28;20108;-79
2023/07/28 05:44:07;;;;;;;0.85;0.20;;;;;;;;;;5114275;28;20044;-80
2023/07/28 05:46:34;;;;;;;3.63;0.30;;;;;;;;;;5114077;28;20104;-81
2023/07/28 05:49:02;;;;;;;0.15;0.15;;;;;;;;;;5096197;28;20055;-80
2023/07/28 05:51:29;;;;;;;0.35;0.22;;;;;;;;;;5113564;28;20116;-81
2023/07/28 05:53:56;;;;;;;1.58;0.20;;;;;;;;;;5096467;28;20096;-79
2023/07/28 05:56:23;;;;;;;2.35;0.20;;;;;;;;;;5095656;28;20047;-81
2023/07/28 05:58:51;;;;;;;3.40;0.30;;;;;;;;;;5096199;28;20060;-79
2023/07/28 06:01:19;;;;;;;0.52;0.17;;;;;;;;;;5095981;28;20067;-80
2023/07/28 06:03:46;;;;;;;1.35;0.20;;;;;;;;;;5096610;28;20092;-80
2023/07/28 06:06:13;;;;;;;0.65;0.20;;;;;;;;;;5114455;28;20040;-81
2023/07/28 06:08:40;;;;;;;0.20;0.20;;;;;;;;;;5101716;28;20051;-82
2023/07/28 06:11:08;;;;;;;0.57;0.10;;;;;;;;;;5118652;28;20055;-81
2023/07/28 06:13:35;;;;;;;0.40;0.17;;;;;;;;;;5099830;28;20063;-81
2023/07/28 06:16:02;;;;;;;0.63;0.30;;;;;;;;;;5117784;28;20043;-81
2023/07/28 06:18:29;;;;;;;0.20;0.10;;;;;;;;;;5098888;28;20419;-81
2023/07/28 06:20:57;;;;;;;0.20;0.20;;;;;;;;;;5117160;28;20044;-81
2023/07/28 06:23:24;;;;;;;0.10;0.10;;;;;;;;;;5098527;28;20098;-82
2023/07/28 06:25:51;;;;;;;1.50;0.10;;;;;;;;;;5097845;28;20048;-81
2023/07/28 06:28:18;;;;;;;0.20;0.20;;;;;;;;;;5115535;28;20052;-81
2023/07/28 06:30:46;;;;;;;2.08;0.20;;;;;;;;;;5098936;28;20048;-82
2023/07/28 06:33:13;;;;;;;0.35;0.10;;;;;;;;;;5096971;28;20487;-81
2023/07/28 06:35:40;;;;;;;0.08;0.08;;;;;;;;;;5115005;28;20105;-80
2023/07/28 06:38:07;;;;;;;0.93;0.10;;;;;;;;;;5114519;28;20051;-81
2023/07/28 06:40:35;;;;;;;1.00;0.10;;;;;;;;;;5118155;28;20469;-80
2023/07/28 06:43:02;;;;;;;0.45;0.30;;;;;;;;;;5117643;28;20051;-80
2023/07/28 06:45:29;;;;;;;0.30;0.30;;;;;;;;;;5119582;28;20461;-81
2023/07/28 06:47:56;;;;;;;0.40;0.10;;;;;;;;;;5121131;28;20052;-79
2023/07/28 06:50:24;;;;;;;0.10;0.10;;;;;;;;;;5102332;28;20495;-82
2023/07/28 06:52:51;;;;;;;1.20;0.20;;;;;;;;;;5119911;28;20052;-81
2023/07/28 06:55:21;;;;;;;0.13;0.10;;;;;;;;;;5101603;28;20081;-81
2023/07/28 06:57:49;;;;;;;0.20;0.20;;;;;;;;;;5099672;28;20048;-81
2023/07/28 07:00:17;;;;;;;0.10;0.10;;;;;;;;;;5100500;28;20538;-82
2023/07/28 07:02:45;;;;;;;0.68;0.20;;;;;;;;;;5100833;28;20044;-81
2023/07/28 07:05:12;;;;;;;1.70;0.28;;;;;;;;;;5099957;28;20419;-79
2023/07/28 07:07:42;;;;;;;0.10;0.10;;;;;;;;;;5119662;28;20047;-81
2023/07/28 07:10:09;;;;;;;2.58;0.20;;;;;;;;;;5120817;28;20391;-81
2023/07/28 07:12:37;;;;;;;0.15;0.10;;;;;;;;;;5102422;28;20056;-81
2023/07/28 07:15:05;;;;;;;1.55;0.13;;;;;;;;;;5102200;28;20044;-81
2023/07/28 07:17:33;;;;;;;1.92;0.20;;;;;;;;;;5101388;28;20419;-82
2023/07/28 07:20:00;;;;;;;0.20;0.20;;;;;;;;;;5119169;28;20055;-81
2023/07/28 07:22:28;;;;;;;0.70;0.25;;;;;;;;;;5118551;28;20054;-82
2023/07/28 07:24:56;;;;;;;1.50;0.20;;;;;;;;;;5100617;28;20051;-81
2023/07/28 07:27:24;;;;;;;0.30;0.30;;;;;;;;;;5100307;28;20469;-81
2023/07/28 07:29:52;;;;;;;0.50;0.30;;;;;;;;;;5117958;28;20109;-81
2023/07/28 07:32:19;;;;;;;1.48;0.75;;;;;;;;;;5098677;28;20059;-81
2023/07/28 07:34:47;;;;;;;1.70;1.60;;;;;;;;;;5117292;28;20058;-82
2023/07/28 07:37:14;;;;;;;1.25;1.15;;;;;;;;;;5098822;28;20052;-82
2023/07/28 07:39:43;;;;;;;0.73;0.70;;;;;;;;;;5117206;28;20461;-80
2023/07/28 07:42:14;;;;;;;2.15;0.47;;;;;;;;;;5116666;28;20096;-80
2023/07/28 07:44:41;;;;;;;1.17;0.52;;;;;;;;;;5101366;28;20052;-81
2023/07/28 07:47:13;;;;;;;0.85;0.20;;;;;;;;;;5100472;28;20052;-81
2023/07/28 07:49:40;;;;;;;1.33;1.30;;;;;;;;;;5118318;28;20058;-80
2023/07/28 07:52:09;;;;;;;1.83;1.73;;;;;;;;;;5117734;28;20055;-82
2023/07/28 07:54:36;;;;;;;1.45;1.35;;;;;;;;;;5099972;28;20069;-80
2023/07/28 07:57:04;;;;;;;7.13;6.53;;;;;;;;;;5117225;28;20307;-81
2023/07/28 07:59:32;;;;;;;7.35;6.65;;;;;;;;;;5118192;28;20039;-81
2023/07/28 08:02:02;;;;;;;1.90;1.80;;;;;;;;;;5098960;28;20047;-82
2023/07/28 08:04:31;;;;;;;1.30;1.30;;;;;;;;;;5117627;28;20052;-81
2023/07/28 08:06:59;;;;;;;0.30;0.30;;;;;;;;;;5116803;28;20054;-79
2023/07/28 08:09:27;;;;;;;0.60;0.60;;;;;;;;;;5101682;28;20050;-82
2023/07/28 08:11:54;;;;;;;0.30;0.30;;;;;;;;;;5101076;28;20043;-82
2023/07/28 08:14:22;;;;;;;1.65;0.28;;;;;;;;;;5100161;28;20100;-81
2023/07/28 08:16:49;;;;;;;4.47;0.43;;;;;;;;;;5117146;28;20107;-82
2023/07/28 08:19:16;;;;;;;1.58;1.48;;;;;;;;;;5117031;28;20051;-81
2023/07/28 08:21:44;;;;;;;0.93;0.93;;;;;;;;;;5099138;28;20044;-83
2023/07/28 08:24:11;;;;;;;0.77;0.40;;;;;;;;;;5117103;28;20043;-81
2023/07/28 08:26:39;;;;;;;1.65;0.47;;;;;;;;;;5098958;28;20074;-82
2023/07/28 08:29:06;;;;;;;1.50;0.20;;;;;;;;;;5098661;28;20048;-82
2023/07/28 08:31:33;;;;;;;2.15;0.20;;;;;;;;;;5098672;28;20495;-81
2023/07/28 08:34:01;;;;;;;0.30;0.30;;;;;;;;;;5098494;28;20047;-82
2023/07/28 08:36:29;;;;;;;4.38;0.28;;;;;;;;;;5116148;28;20480;-82
2023/07/28 08:38:56;;;;;;;0.43;0.20;;;;;;;;;;5097713;28;20046;-81
2023/07/28 08:41:23;;;;;;;0.95;0.30;;;;;;;;;;5116946;28;20059;-79
2023/07/28 08:43:51;;;;;;;1.10;0.30;;;;;;;;;;5098910;28;20112;-81
2023/07/28 08:46:19;;;;;;;0.88;0.88;;;;;;;;;;5117175;28;20043;-81
2023/07/28 08:48:46;;;;;;;1.73;1.73;;;;;;;;;;5117574;28;20130;-82
2023/07/28 08:51:14;;;;;;;3.75;3.60;;;;;;;;;;5118204;28;20052;-83
2023/07/28 08:53:41;;;;;;;0.20;0.20;;;;;;;;;;5098769;28;20472;-82
2023/07/28 08:56:09;;;;;;;0.20;0.20;;;;;;;;;;5097582;28;20518;-81
2023/07/28 08:58:37;;;;;;;0.30;0.30;;;;;;;;;;5115521;28;20540;-82
2023/07/28 09:01:04;;;;;;;0.20;0.20;;;;;;;;;;5096866;28;20054;-81
2023/07/28 09:03:33;;;;;;;1.45;0.10;;;;;;;;;;5097350;28;20048;-81
2023/07/28 09:06:02;;;;;;;0.68;0.30;;;;;;;;;;5097755;28;20043;-82
2023/07/28 09:08:32;;;;;;;0.20;0.20;;;;;;;;;;5115670;28;20047;-81
2023/07/28 09:11:03;;;;;;;2.55;0.30;;;;;;;;;;5097400;28;20039;-81
2023/07/28 09:13:36;;;;;;;1.25;0.10;;;;;;;;;;5097213;28;20055;-84
2023/07/28 09:16:03;;;;;;;0.30;0.20;;;;;;;;;;5115325;28;20047;-81
2023/07/28 09:18:31;;;;;;;1.35;0.20;;;;;;;;;;5097222;28;20051;-81
2023/07/28 09:20:59;;;;;;;1.15;0.30;;;;;;;;;;5098523;28;20051;-80
2023/07/28 09:23:30;;;;;;;0.57;0.30;;;;;;;;;;5099444;28;20419;-82
2023/07/28 09:26:04;;;;;;;0.17;0.17;;;;;;;;;;5098948;28;20056;-81
2023/07/28 09:28:38;;;;;;;0.20;0.20;;;;;;;;;;5099389;28;20048;-81
2023/07/28 09:31:06;;;;;;;0.10;0.10;;;;;;;;;;5099106;28;20457;-82
2023/07/28 09:33:34;;;;;;;0.15;0.15;;;;;;;;;;5115577;28;20521;-81
2023/07/28 09:36:11;;;;;;;1.55;0.25;;;;;;;;;;5096932;28;20047;-79
2023/07/28 09:38:43;;;;;;;1.48;0.15;;;;;;;;;;5116054;28;20130;-83
2023/07/28 09:41:11;;;;;;;0.20;0.10;;;;;;;;;;5096982;28;20572;-81
2023/07/28 09:43:39;;;;;;;1.45;0.10;;;;;;;;;;5096874;28;20050;-81
2023/07/28 09:46:10;;;;;;;0.93;0.40;;;;;;;;;;5096938;28;20097;-81
2023/07/28 09:48:39;;;;;;;0.55;0.55;;;;;;;;;;5097447;28;20075;-80
2023/07/28 09:51:09;;;;;;;0.20;0.20;;;;;;;;;;5096949;28;20048;-81
2023/07/28 09:53:40;;;;;;;2.88;0.20;;;;;;;;;;5096443;28;20058;-81
2023/07/28 09:56:09;;;;;;;2.08;0.20;;;;;;;;;;5096747;28;20043;-80
2023/07/28 09:58:38;;;;;;;0.30;0.17;;;;;;;;;;5114050;28;20465;-81
2023/07/28 10:01:05;;;;;;;0.95;0.20;;;;;;;;;;5095749;28;20044;-81
2023/07/28 10:03:33;;;;;;;0.28;0.10;;;;;;;;;;5096005;28;20054;-81
2023/07/28 10:06:01;;;;;;;5.22;0.30;;;;;;;;;;5113846;28;20480;-81
2023/07/28 10:08:28;;;;;;;0.50;0.13;;;;;;;;;;5095694;28;20039;-80
2023/07/28 10:10:56;;;;;;;0.20;0.20;;;;;;;;;;5095799;28;20052;-80
2023/07/28 10:13:23;;;;;;;0.20;0.20;;;;;;;;;;5097286;28;20063;-82
2023/07/28 10:15:51;;;;;;;0.55;0.17;;;;;;;;;;5117846;28;20055;-82
2023/07/28 10:18:21;;;;;;;0.47;0.10;;;;;;;;;;5099705;28;20104;-79
2023/07/28 10:20:49;;;;;;;0.47;0.15;;;;;;;;;;5102996;28;20073;-82
2023/07/28 10:23:17;;;;;;;0.40;0.20;;;;;;;;;;5103138;28;20058;-81
2023/07/28 10:25:45;;;;;;;0.20;0.10;;;;;;;;;;5120944;28;20484;-80
2023/07/28 10:28:26;;;;;;;1.98;0.30;;;;;;;;;;5101328;28;20058;-81
2023/07/28 10:30:55;;;;;;;1.88;0.20;;;;;;;;;;5102033;28;20059;-81
2023/07/28 10:33:33;;;;;;;0.10;0.10;;;;;;;;;;5101055;28;20055;-81
2023/07/28 10:36:10;;;;;;;1.10;0.17;;;;;;;;;;5100452;28;20044;-81
2023/07/28 10:38:38;;;;;;;0.85;0.10;;;;;;;;;;5118322;28;20051;-81
2023/07/28 10:41:09;;;;;;;0.20;0.10;;;;;;;;;;5100184;28;20499;-81
2023/07/28 10:43:37;;;;;;;2.13;0.43;;;;;;;;;;5099709;28;20039;-81
2023/07/28 10:46:06;;;;;;;0.63;0.47;;;;;;;;;;5117815;28;20047;-81
2023/07/28 10:48:34;;;;;;;0.22;0.22;;;;;;;;;;5099530;28;20082;-81
2023/07/28 10:51:01;;;;;;;0.10;0.10;;;;;;;;;;5117108;28;20055;-80
2023/07/28 10:53:32;;;;;;;0.20;0.20;;;;;;;;;;5099793;28;20052;-81
2023/07/28 10:55:59;;;;;;;2.55;0.30;;;;;;;;;;5116693;28;20051;-82
2023/07/28 10:58:26;;;;;;;1.45;0.30;;;;;;;;;;5118672;28;20487;-81
2023/07/28 11:00:53;;;;;;;0.20;0.10;;;;;;;;;;5119417;28;20043;-82
2023/07/28 11:03:21;;;;;;;0.38;0.22;;;;;;;;;;5099959;28;20534;-82
2023/07/28 11:05:49;;;;;;;0.10;0.10;;;;;;;;;;5101678;28;20108;-81
2023/07/28 11:08:17;;;;;;;1.67;0.28;;;;;;;;;;5117870;28;20047;-81
2023/07/28 11:10:44;;;;;;;0.43;0.20;;;;;;;;;;5099744;28;20044;-82
2023/07/28 11:13:11;;;;;;;0.55;0.20;;;;;;;;;;5100027;28;20108;-81
2023/07/28 11:15:59;;;;;;;1.92;0.20;;;;;;;;;;5102452;28;20527;-81
2023/07/28 11:18:26;;;;;;;0.50;0.25;;;;;;;;;;5099462;28;20480;-83
2023/07/28 11:20:54;;;;;;;0.20;0.20;;;;;;;;;;5099650;28;20040;-81
2023/07/28 11:23:21;;;;;;;1.95;0.40;;;;;;;;;;5099149;28;20055;-80
2023/07/28 11:25:48;;;;;;;1.35;0.10;;;;;;;;;;5098053;28;20503;-83
2023/07/28 11:28:15;;;;;;;0.45;0.15;;;;;;;;;;5098691;28;20105;-80
2023/07/28 11:30:43;;;;;;;2.65;0.40;;;;;;;;;;5098665;28;20051;-79
2023/07/28 11:33:11;;;;;;;1.23;0.30;;;;;;;;;;5098689;28;20048;-80
2023/07/28 11:35:42;;;;;;;2.15;0.10;;;;;;;;;;5116783;28;20054;-80
2023/07/28 11:38:10;;;;;;;4.10;0.30;;;;;;;;;;5116211;28;20051;-79
2023/07/28 11:40:37;;;;;;;1.48;0.25;;;;;;;;;;5098066;28;20044;-79
2023/07/28 11:43:04;;;;;;;0.10;0.10;;;;;;;;;;5097893;28;20101;-82
2023/07/28 11:45:32;;;;;;;0.10;0.10;;;;;;;;;;5115690;28;20121;-81
2023/07/28 11:48:00;;;;;;;0.13;0.13;;;;;;;;;;5115796;28;20043;-79
2023/07/28 11:50:29;;;;;;;0.38;0.20;;;;;;;;;;5097643;28;20473;-80
2023/07/28 11:52:59;;;;;;;0.30;0.10;;;;;;;;;;5097115;28;20051;-80
2023/07/28 11:55:27;;;;;;;0.30;0.10;;;;;;;;;;5099669;28;20055;-83
2023/07/28 11:57:54;;;;;;;2.25;0.20;;;;;;;;;;5119111;28;20073;-80
2023/07/28 12:00:29;;;;;;;2.65;0.22;;;;;;;;;;5100206;28;20052;-83
2023/07/28 12:03:09;;;;;;;0.45;0.20;;;;;;;;;;5118027;28;20054;-81
2023/07/28 12:05:38;;;;;;;0.52;0.10;;;;;;;;;;5117972;28;20120;-79
2023/07/28 12:08:33;;;;;;;0.10;0.10;;;;;;;;;;5118098;28;20078;-82
2023/07/28 12:11:00;;;;;;;0.60;0.10;;;;;;;;;;5099064;28;20491;-80
2023/07/28 12:13:31;;;;;;;1.75;0.20;;;;;;;;;;5099322;28;20293;-80
2023/07/28 12:15:58;;;;;;;0.13;0.10;;;;;;;;;;5116240;28;20047;-79
2023/07/28 12:18:31;;;;;;;3.22;0.20;;;;;;;;;;5116922;28;20127;-79
2023/07/28 12:21:02;;;;;;;1.05;0.13;;;;;;;;;;5098622;28;20089;-81
2023/07/28 12:23:29;;;;;;;5.63;0.30;;;;;;;;;;5097241;28;20415;-81
2023/07/28 12:25:59;;;;;;;1.80;0.20;;;;;;;;;;5097796;28;20499;-80
2023/07/28 12:28:27;;;;;;;1.30;0.20;;;;;;;;;;5097489;28;20051;-79
2023/07/28 12:30:55;;;;;;;5.97;0.70;;;;;;;;;;5096790;28;20100;-80
2023/07/28 12:33:25;;;;;;;3.08;0.10;;;;;;;;;;5097359;28;20051;-80
2023/07/28 12:36:06;;;;;;;8.75;0.22;;;;;;;;;;5099106;28;20059;-83
2023/07/28 12:38:36;;;;;;;4.65;0.50;;;;;;;;;;5100723;28;20047;-84
2023/07/28 12:41:08;;;;;;;5.55;0.50;;;;;;;;;;5117801;28;20052;-82
2023/07/28 12:43:36;;;;;;;2.00;0.20;;;;;;;;;;5117773;28;20078;-82
2023/07/28 12:46:06;;;;;;;7.75;0.55;;;;;;;;;;5100416;28;20120;-82
2023/07/28 12:48:36;;;;;;;0.00;0.00;;;;;;;;;;5117446;28;20048;-79
2023/07/28 12:51:14;;;;;;;0.43;0.10;;;;;;;;;;5101211;28;20116;-80
2023/07/28 12:53:57;;;;;;;0.05;0.05;;;;;;;;;;5101020;28;20134;-81
2023/07/28 12:56:24;;;;;;;0.93;0.25;;;;;;;;;;5098641;28;20514;-82
2023/07/28 12:58:54;;;;;;;0.20;0.20;;;;;;;;;;5116370;28;20056;-80
2023/07/28 13:01:24;;;;;;;0.20;0.10;;;;;;;;;;5116526;28;20043;-80
2023/07/28 13:03:53;;;;;;;3.30;0.20;;;;;;;;;;5097661;28;20094;-80
2023/07/28 13:06:20;;;;;;;1.85;0.20;;;;;;;;;;5097325;28;20047;-81
2023/07/28 13:08:47;;;;;;;1.38;0.20;;;;;;;;;;5097234;28;20048;-80
2023/07/28 13:11:17;;;;;;;0.75;0.10;;;;;;;;;;5114683;28;20105;-81
2023/07/28 13:13:45;;;;;;;2.45;0.10;;;;;;;;;;5097318;28;20080;-81
2023/07/28 13:16:12;;;;;;;0.43;0.13;;;;;;;;;;5096740;28;20055;-79
2023/07/28 13:18:40;;;;;;;1.25;0.20;;;;;;;;;;5096221;28;20052;-80
2023/07/28 13:21:07;;;;;;;4.25;0.52;;;;;;;;;;5096043;28;20040;-80
2023/07/28 13:23:34;;;;;;;2.00;0.20;;;;;;;;;;5096235;28;20083;-81
2023/07/28 13:26:04;;;;;;;0.40;0.20;;;;;;;;;;5113638;28;20453;-83
2023/07/28 13:28:31;;;;;;;1.30;0.20;;;;;;;;;;5096026;28;20131;-81
2023/07/28 13:30:59;;;;;;;0.10;0.10;;;;;;;;;;5114477;28;20083;-80
2023/07/28 13:33:26;;;;;;;0.17;0.10;;;;;;;;;;5117497;28;20051;-81
2023/07/28 13:35:54;;;;;;;1.08;0.20;;;;;;;;;;5099986;28;20052;-82
2023/07/28 13:38:21;;;;;;;1.65;0.15;;;;;;;;;;5118822;28;20116;-81
2023/07/28 13:40:48;;;;;;;0.22;0.10;;;;;;;;;;5100003;28;20488;-81
2023/07/28 13:43:16;;;;;;;0.10;0.10;;;;;;;;;;5117281;28;20054;-82
2023/07/28 13:45:44;;;;;;;0.00;0.00;;;;;;;;;;5098701;28;20051;-82
2023/07/28 13:48:11;;;;;;;0.10;0.10;;;;;;;;;;5099121;28;20054;-80
2023/07/28 13:50:41;;;;;;;0.10;0.00;;;;;;;;;;5121721;28;20055;-81
2023/07/28 13:53:10;;;;;;;0.10;0.10;;;;;;;;;;5102442;28;20054;-80
2023/07/28 13:55:40;;;;;;;0.10;0.10;;;;;;;;;;5102319;28;20051;-81
2023/07/28 13:58:08;;;;;;;0.70;0.10;;;;;;;;;;5102006;28;20082;-81
2023/07/28 14:00:35;;;;;;;0.60;0.30;;;;;;;;;;5102332;28;20051;-81
2023/07/28 14:03:03;;;;;;;0.10;0.10;;;;;;;;;;5101679;28;20040;-82
2023/07/28 14:05:30;;;;;;;1.00;0.13;;;;;;;;;;5102417;28;20084;-80
2023/07/28 14:07:57;;;;;;;0.55;0.20;;;;;;;;;;5101684;28;20079;-82
2023/07/28 14:10:25;;;;;;;0.28;0.20;;;;;;;;;;5102579;28;20089;-82
2023/07/28 14:12:52;;;;;;;0.32;0.10;;;;;;;;;;5101401;28;20043;-82
2023/07/28 14:15:19;;;;;;;1.65;0.20;;;;;;;;;;5103279;28;20044;-81
2023/07/28 14:17:46;;;;;;;0.10;0.10;;;;;;;;;;5103325;28;20043;-83
2023/07/28 14:20:14;;;;;;;0.20;0.20;;;;;;;;;;5120801;28;20052;-82
2023/07/28 14:22:41;;;;;;;0.68;0.20;;;;;;;;;;5121481;28;20491;-83
2023/07/28 14:25:08;;;;;;;0.82;0.20;;;;;;;;;;5103888;28;20044;-83
2023/07/28 14:27:35;;;;;;;0.10;0.10;;;;;;;;;;5102697;28;20040;-82
2023/07/28 14:30:03;;;;;;;6.20;0.40;;;;;;;;;;5102215;28;20116;-81
2023/07/28 14:32:30;;;;;;;0.80;0.20;;;;;;;;;;5101581;28;20058;-81
2023/07/28 14:34:57;;;;;;;1.17;0.10;;;;;;;;;;5102446;28;20066;-79
2023/07/28 14:37:24;;;;;;;1.65;0.20;;;;;;;;;;5100840;28;20055;-81
2023/07/28 14:39:52;;;;;;;0.70;0.20;;;;;;;;;;5102026;28;20055;-80
2023/07/28 14:42:20;;;;;;;1.52;0.20;;;;;;;;;;5100402;28;20039;-81
2023/07/28 14:44:47;;;;;;;0.47;0.10;;;;;;;;;;5101167;28;20044;-82
2023/07/28 14:47:14;;;;;;;0.17;0.10;;;;;;;;;;5118992;28;20047;-82
2023/07/28 14:49:42;;;;;;;0.20;0.20;;;;;;;;;;5100604;28;20105;-82